Time;durP1;ratioP1;P1;durP2;ratioP2;P2;SDS_P1;SDS_P2;PMS_P1;PMS_P2;Temp;Humidity;BMP_temperature;BMP_pressure;BME280_temperature;BME280_humidity;BME280_pressure;Samples;Min_cycle;Max_cycle;Signal;HPM_P1;HPM_P2
2023/10/06 00:03:16;;;;;;;;;;;;;;;11.52;100.00;102485.50;5045957;28;20436;-70
2023/10/06 00:05:41;;;;;;;;;;;;;;;11.51;100.00;102483.75;5049927;28;19923;-69
2023/10/06 00:08:20;;;;;;;;;;;;;;;11.54;100.00;102483.59;5049504;28;19925;-70
2023/10/06 00:10:46;;;;;;;;;;;;;;;11.50;100.00;102481.19;5048927;28;20362;-70
2023/10/06 00:13:12;;;;;;;;;;;;;;;11.44;100.00;102457.31;5051283;28;19921;-69
2023/10/06 00:15:43;;;;;;;;;;;;;;;11.46;100.00;102477.78;5048008;28;20401;-70
2023/10/06 00:18:09;;;;;;;;;;;;;;;11.42;100.00;102478.03;5047682;28;20154;-69
2023/10/06 00:20:42;;;;;;;;;;;;;;;11.39;100.00;102474.56;5047839;28;20019;-70
2023/10/06 00:23:09;;;;;;;;;;;;;;;11.40;100.00;102478.97;5051166;28;19996;-69
2023/10/06 00:25:37;;;;;;;;;;;;;;;11.36;100.00;102484.63;5044608;28;20387;-70
2023/10/06 00:28:04;;;;;;;;;;;;;;;11.33;100.00;102477.56;5047814;28;19924;-68
2023/10/06 00:30:29;;;;;;;;;;;;;;;11.24;100.00;102475.41;5046180;28;19961;-70
2023/10/06 00:32:55;;;;;;;;;;;;;;;11.20;100.00;102482.75;5050802;28;19916;-70
2023/10/06 00:35:30;;;;;;;;;;;;;;;11.27;100.00;102477.06;5049142;28;20034;-70
2023/10/06 00:37:59;;;;;;;;;;;;;;;11.15;100.00;102471.38;5051425;28;20379;-70
2023/10/06 00:40:25;;;;;;;;;;;;;;;11.13;100.00;102477.81;5048933;28;20057;-70
2023/10/06 00:42:51;;;;;;;;;;;;;;;11.11;100.00;102480.59;5052627;28;20382;-70
2023/10/06 00:45:16;;;;;;;;;;;;;;;11.08;100.00;102481.59;5032854;28;19959;-70
2023/10/06 00:47:41;;;;;;;;;;;;;;;11.10;100.00;102476.16;5050964;28;19921;-70
2023/10/06 00:50:14;;;;;;;;;;;;;;;11.02;100.00;102476.56;5049697;28;19956;-70
2023/10/06 00:52:39;;;;;;;;;;;;;;;10.94;100.00;102476.97;5048350;28;20314;-70
2023/10/06 00:55:08;;;;;;;;;;;;;;;10.89;100.00;102468.28;5045259;28;20376;-70
2023/10/06 00:57:34;;;;;;;;;;;;;;;10.89;100.00;102476.34;5048093;28;19932;-70
2023/10/06 00:59:59;;;;;;;;;;;;;;;10.92;100.00;102467.25;5047829;28;19933;-70
2023/10/06 01:02:24;;;;;;;;;;;;;;;10.76;100.00;102451.09;5050997;28;20349;-70
2023/10/06 01:04:52;;;;;;;;;;;;;;;10.86;100.00;102463.06;5048881;28;20499;-70
2023/10/06 01:07:18;;;;;;;;;;;;;;;10.76;100.00;102457.31;5047616;28;20359;-70
2023/10/06 01:09:56;;;;;;;;;;;;;;;10.70;100.00;102452.28;5048304;28;19922;-70
2023/10/06 01:12:23;;;;;;;;;;;;;;;10.61;100.00;102436.66;5047917;28;20422;-71
2023/10/06 01:14:51;;;;;;;;;;;;;;;10.79;100.00;102454.47;5048061;28;19967;-71
2023/10/06 01:17:17;;;;;;;;;;;;;;;10.77;100.00;102455.50;5050457;28;20011;-70
2023/10/06 01:19:48;;;;;;;;;;;;;;;10.89;100.00;102462.91;5049116;28;20390;-70
2023/10/06 01:22:29;;;;;;;;;;;;;;;10.89;100.00;102451.31;5048816;28;19916;-70
2023/10/06 01:24:55;;;;;;;;;;;;;;;10.88;100.00;102444.19;5047772;28;20003;-70
2023/10/06 01:27:22;;;;;;;;;;;;;;;10.83;100.00;102439.06;5045292;28;19920;-71
2023/10/06 01:30:07;;;;;;;;;;;;;;;10.89;100.00;102441.41;5047319;28;20273;-70
2023/10/06 01:32:32;;;;;;;;;;;;;;;10.76;100.00;102443.03;5049943;28;19928;-71
2023/10/06 01:34:58;;;;;;;;;;;;;;;10.72;100.00;102442.34;5052427;28;19959;-71
2023/10/06 01:37:23;;;;;;;;;;;;;;;10.80;100.00;102442.78;5047756;28;20007;-70
2023/10/06 01:39:51;;;;;;;;;;;;;;;10.80;100.00;102442.78;5047733;28;19939;-70
2023/10/06 01:42:24;;;;;;;;;;;;;;;10.79;100.00;102448.25;5049410;28;20394;-71
2023/10/06 01:44:49;;;;;;;;;;;;;;;10.77;100.00;102431.34;5049351;28;19928;-70
2023/10/06 01:47:18;;;;;;;;;;;;;;;10.68;100.00;102419.25;5049476;28;19924;-70
2023/10/06 01:49:44;;;;;;;;;;;;;;;10.64;100.00;102423.91;5047210;28;19932;-70
2023/10/06 01:52:09;;;;;;;;;;;;;;;10.62;100.00;102422.25;5049514;28;20266;-71
2023/10/06 01:54:34;;;;;;;;;;;;;;;10.62;100.00;102412.38;5045167;28;19927;-70
2023/10/06 01:57:11;;;;;;;;;;;;;;;10.57;100.00;102416.25;5050091;28;19959;-71
2023/10/06 01:59:36;;;;;;;;;;;;;;;10.57;100.00;102413.56;5051551;28;20382;-71
2023/10/06 02:02:02;;;;;;;;;;;;;;;10.61;100.00;102412.47;5033130;28;20166;-72
2023/10/06 02:04:34;;;;;;;;;;;;;;;10.65;100.00;102416.72;5050522;28;19920;-71
2023/10/06 02:06:59;;;;;;;;;;;;;;;10.69;100.00;102422.81;5047927;28;19924;-71
2023/10/06 02:09:25;;;;;;;;;;;;;;;10.68;100.00;102426.44;5047323;28;20424;-71
2023/10/06 02:11:50;;;;;;;;;;;;;;;10.60;100.00;102425.00;5047405;28;19974;-70
2023/10/06 02:14:18;;;;;;;;;;;;;;;10.58;100.00;102418.88;5048982;28;20421;-70
2023/10/06 02:16:44;;;;;;;;;;;;;;;10.64;100.00;102426.59;5030654;28;19956;-70
2023/10/06 02:19:11;;;;;;;;;;;;;;;10.69;100.00;102430.88;5048441;28;20763;-70
2023/10/06 02:21:42;;;;;;;;;;;;;;;10.57;100.00;102427.88;5046598;28;19999;-70
2023/10/06 02:24:08;;;;;;;;;;;;;;;10.57;100.00;102422.53;5044952;28;19931;-70
2023/10/06 02:26:36;;;;;;;;;;;;;;;10.47;100.00;102429.31;5048848;28;19927;-70
2023/10/06 02:29:01;;;;;;;;;;;;;;;10.46;100.00;102428.41;5044679;28;19978;-70
2023/10/06 02:31:27;;;;;;;;;;;;;;;10.44;100.00;102426.78;5047657;28;20018;-70
2023/10/06 02:33:53;;;;;;;;;;;;;;;10.45;100.00;102425.84;5032561;28;20011;-70
2023/10/06 02:36:21;;;;;;;;;;;;;;;10.33;100.00;102419.25;5048808;28;20011;-70
2023/10/06 02:38:47;;;;;;;;;;;;;;;10.31;100.00;102413.09;5046975;28;19931;-70
2023/10/06 02:41:18;;;;;;;;;;;;;;;10.28;100.00;102418.59;5048122;28;19924;-70
2023/10/06 02:43:44;;;;;;;;;;;;;;;10.25;100.00;102408.03;5050273;28;19981;-71
2023/10/06 02:46:10;;;;;;;;;;;;;;;10.33;100.00;102408.50;5046770;28;19954;-70
2023/10/06 02:48:37;;;;;;;;;;;;;;;10.33;100.00;102408.50;5047557;28;20027;-70
2023/10/06 02:51:02;;;;;;;;;;;;;;;10.38;100.00;102417.19;5047495;28;20620;-71
2023/10/06 02:53:35;;;;;;;;;;;;;;;10.41;100.00;102418.88;5047318;28;20022;-70
2023/10/06 02:56:07;;;;;;;;;;;;;;;10.40;100.00;102411.78;5047882;28;19924;-71
2023/10/06 02:58:33;;;;;;;;;;;;;;;10.38;100.00;102409.16;5043872;28;19935;-70
2023/10/06 03:00:58;;;;;;;;;;;;;;;10.40;100.00;102399.22;5044015;28;19932;-70
2023/10/06 03:03:27;;;;;;;;;;;;;;;10.35;100.00;102404.78;5049676;28;20310;-70
2023/10/06 03:05:53;;;;;;;;;;;;;;;10.38;100.00;102413.63;5044681;28;19939;-70
2023/10/06 03:08:20;;;;;;;;;;;;;;;10.30;100.00;102400.59;5047869;28;19924;-71
2023/10/06 03:10:46;;;;;;;;;;;;;;;10.33;100.00;102405.81;5046877;28;19928;-70
2023/10/06 03:13:14;;;;;;;;;;;;;;;10.24;100.00;102400.91;5047175;28;19924;-71
2023/10/06 03:15:45;;;;;;;;;;;;;;;10.14;100.00;102398.72;5047544;28;20375;-71
2023/10/06 03:18:15;;;;;;;;;;;;;;;10.18;100.00;102392.25;5045865;28;20363;-70
2023/10/06 03:20:46;;;;;;;;;;;;;;;10.14;100.00;102387.09;5046435;28;20176;-73
2023/10/06 03:23:26;;;;;;;;;;;;;;;10.15;100.00;102387.03;5048218;28;20019;-70
2023/10/06 03:25:56;;;;;;;;;;;;;;;10.15;100.00;102394.22;5041264;28;19958;-71
2023/10/06 03:28:26;;;;;;;;;;;;;;;10.16;100.00;102391.47;5044570;28;19920;-71
2023/10/06 03:30:51;;;;;;;;;;;;;;;10.26;100.00;102390.97;5047551;28;20007;-69
2023/10/06 03:33:18;;;;;;;;;;;;;;;10.17;100.00;102395.88;5049612;28;19920;-70
2023/10/06 03:35:48;;;;;;;;;;;;;;;10.22;100.00;102395.66;5051805;28;19955;-70
2023/10/06 03:41:07;;;;;;;;;;;;;;;10.21;100.00;102385.84;5048676;28;20202;-73
2023/10/06 03:43:51;;;;;;;;;;;;;;;10.21;100.00;102378.66;5052892;28;20368;-72
2023/10/06 03:46:20;;;;;;;;;;;;;;;10.23;100.00;102378.59;5054018;28;19916;-71
2023/10/06 03:48:46;;;;;;;;;;;;;;;10.23;100.00;102378.59;5053311;28;20050;-72
2023/10/06 03:51:11;;;;;;;;;;;;;;;10.31;100.00;102378.19;5051285;28;19929;-73
2023/10/06 03:53:36;;;;;;;;;;;;;;;10.31;100.00;102371.03;5052235;28;19913;-70
2023/10/06 03:56:01;;;;;;;;;;;;;;;10.30;100.00;102371.06;5052023;28;19935;-72
2023/10/06 03:58:31;;;;;;;;;;;;;;;10.21;100.00;102364.38;5051269;28;20274;-74
2023/10/06 04:00:58;;;;;;;;;;;;;;;10.21;100.00;102364.38;5048710;28;19925;-75
2023/10/06 04:03:23;;;;;;;;;;;;;;;10.28;100.00;102352.38;5049022;28;19924;-70
2023/10/06 04:05:49;;;;;;;;;;;;;;;10.21;100.00;102356.31;5054362;28;19982;-74
2023/10/06 04:08:16;;;;;;;;;;;;;;;10.31;100.00;102357.59;5054011;28;20249;-72
2023/10/06 04:10:42;;;;;;;;;;;;;;;10.28;100.00;102368.50;5052384;28;19927;-71
2023/10/06 04:13:08;;;;;;;;;;;;;;;10.23;100.00;102372.34;5051809;28;19943;-71
2023/10/06 04:15:39;;;;;;;;;;;;;;;10.23;100.00;102370.53;5051195;28;19920;-71
2023/10/06 04:18:11;;;;;;;;;;;;;;;10.24;100.00;102366.03;5052497;28;19924;-72
2023/10/06 04:20:40;;;;;;;;;;;;;;;10.25;100.00;102367.75;5048318;28;20059;-71
2023/10/06 04:23:07;;;;;;;;;;;;;;;10.24;100.00;102374.97;5049476;28;19920;-73
2023/10/06 04:25:36;;;;;;;;;;;;;;;10.26;100.00;102374.88;5049762;28;20142;-71
2023/10/06 04:28:02;;;;;;;;;;;;;;;10.24;100.00;102371.41;5046992;28;20370;-71
2023/10/06 04:30:29;;;;;;;;;;;;;;;10.30;100.00;102377.34;5050283;28;19920;-75
2023/10/06 04:32:55;;;;;;;;;;;;;;;10.21;100.00;102372.44;5051180;28;19943;-75
2023/10/06 04:35:24;;;;;;;;;;;;;;;10.32;100.00;102377.25;5046728;28;20338;-71
2023/10/06 04:37:49;;;;;;;;;;;;;;;10.31;100.00;102376.38;5046152;28;19943;-73
2023/10/06 04:40:17;;;;;;;;;;;;;;;10.29;100.00;102378.28;5050225;28;19929;-70
2023/10/06 04:42:42;;;;;;;;;;;;;;;10.32;100.00;102378.13;5045808;28;19985;-71
2023/10/06 04:45:08;;;;;;;;;;;;;;;10.28;100.00;102364.91;5046464;28;19928;-73
2023/10/06 04:47:36;;;;;;;;;;;;;;;10.14;100.00;102376.38;5051591;28;19920;-74
2023/10/06 04:50:02;;;;;;;;;;;;;;;10.13;100.00;102362.09;5049485;28;19958;-71
2023/10/06 04:52:27;;;;;;;;;;;;;;;10.15;100.00;102348.59;5048264;28;19928;-74
2023/10/06 04:54:52;;;;;;;;;;;;;;;10.20;100.00;102346.53;5050805;28;20326;-75
2023/10/06 04:57:18;;;;;;;;;;;;;;;10.23;100.00;102346.38;5046640;28;19924;-74
2023/10/06 04:59:44;;;;;;;;;;;;;;;10.32;100.00;102342.34;5046038;28;20358;-79
2023/10/06 05:02:11;;;;;;;;;;;;;;;10.32;100.00;102332.47;5049047;28;20433;-70
2023/10/06 05:04:36;;;;;;;;;;;;;;;10.30;100.00;102345.13;5030212;28;19920;-73
2023/10/06 05:07:03;;;;;;;;;;;;;;;10.36;100.00;102344.78;5042714;28;20781;-75
2023/10/06 05:09:31;;;;;;;;;;;;;;;10.32;100.00;102343.22;5048580;28;19970;-70
2023/10/06 05:11:57;;;;;;;;;;;;;;;10.19;100.00;102329.59;5053273;28;19924;-73
2023/10/06 05:14:23;;;;;;;;;;;;;;;10.44;100.00;102359.66;5055474;28;20029;-73
2023/10/06 05:16:51;;;;;;;;;;;;;;;10.46;100.00;102358.59;5054254;28;19924;-73
2023/10/06 05:19:17;;;;;;;;;;;;;;;10.50;100.00;102362.00;5054172;28;19920;-70
2023/10/06 05:21:42;;;;;;;;;;;;;;;10.50;100.00;102365.56;5050971;28;19947;-75
2023/10/06 05:24:08;;;;;;;;;;;;;;;10.56;100.00;102368.88;5048941;28;20010;-71
2023/10/06 05:26:33;;;;;;;;;;;;;;;10.62;100.00;102363.16;5047057;28;19921;-71
2023/10/06 05:28:59;;;;;;;;;;;;;;;10.58;100.00;102361.59;5030002;28;19925;-73
2023/10/06 05:31:24;;;;;;;;;;;;;;;10.62;100.00;102352.44;5035355;28;19931;-75
2023/10/06 05:33:51;;;;;;;;;;;;;;;10.65;100.00;102350.44;5050708;28;20429;-72
2023/10/06 05:36:16;;;;;;;;;;;;;;;10.61;100.00;102364.97;5049179;28;20024;-73
2023/10/06 05:38:41;;;;;;;;;;;;;;;10.65;100.00;102357.63;5052578;28;20403;-73
2023/10/06 05:41:11;;;;;;;;;;;;;;;10.63;100.00;102354.16;5050901;28;19975;-71
2023/10/06 05:43:36;;;;;;;;;;;;;;;10.66;100.00;102354.00;5051375;28;19927;-72
2023/10/06 05:46:03;;;;;;;;;;;;;;;10.68;100.00;102354.78;5046673;28;19921;-73
2023/10/06 05:48:30;;;;;;;;;;;;;;;10.55;100.00;102356.38;5053627;28;19920;-72
2023/10/06 05:51:05;;;;;;;;;;;;;;;10.53;100.00;102350.22;5046832;28;20262;-72
2023/10/06 05:53:34;;;;;;;;;;;;;;;10.54;100.00;102349.28;5046715;28;20507;-73
2023/10/06 05:56:02;;;;;;;;;;;;;;;10.50;100.00;102346.75;5045862;28;19916;-72
2023/10/06 05:58:30;;;;;;;;;;;;;;;10.55;100.00;102342.97;5052781;28;19970;-71
2023/10/06 06:01:06;;;;;;;;;;;;;;;10.39;100.00;102329.47;5045648;28;19925;-73
2023/10/06 06:03:31;;;;;;;;;;;;;;;10.53;100.00;102352.91;5046119;28;19960;-74
2023/10/06 06:05:57;;;;;;;;;;;;;;;10.55;100.00;102351.00;5047322;28;20019;-72
2023/10/06 06:08:22;;;;;;;;;;;;;;;10.50;100.00;102344.06;5050904;28;19922;-73
2023/10/06 06:10:48;;;;;;;;;;;;;;;10.58;100.00;102345.47;5046619;28;19924;-71
2023/10/06 06:13:13;;;;;;;;;;;;;;;10.60;100.00;102351.66;5048159;28;20240;-73
2023/10/06 06:15:39;;;;;;;;;;;;;;;10.63;100.00;102351.47;5050415;28;20003;-75
2023/10/06 06:18:04;;;;;;;;;;;;;;;10.76;100.00;102354.38;5048394;28;19962;-71
2023/10/06 06:20:30;;;;;;;;;;;;;;;10.73;100.00;102352.69;5047429;28;19929;-74
2023/10/06 06:22:58;;;;;;;;;;;;;;;10.84;100.00;102353.94;5045099;28;19928;-72
2023/10/06 06:25:23;;;;;;;;;;;;;;;10.90;100.00;102350.94;5046242;28;19962;-72
2023/10/06 06:27:49;;;;;;;;;;;;;;;10.93;100.00;102353.44;5046342;28;20015;-71
2023/10/06 06:30:18;;;;;;;;;;;;;;;10.94;100.00;102352.50;5047570;28;19928;-74
2023/10/06 06:32:44;;;;;;;;;;;;;;;11.02;100.00;102352.91;5048212;28;19924;-70
2023/10/06 06:35:13;;;;;;;;;;;;;;;11.04;100.00;102359.06;5041537;28;19984;-71
2023/10/06 06:37:39;;;;;;;;;;;;;;;11.07;100.00;102358.91;5048364;28;19924;-71
2023/10/06 06:40:06;;;;;;;;;;;;;;;11.10;100.00;102358.75;5050645;28;19920;-71
2023/10/06 06:42:31;;;;;;;;;;;;;;;11.11;100.00;102362.31;5050162;28;20304;-69
2023/10/06 06:45:00;;;;;;;;;;;;;;;11.12;100.00;102361.38;5044608;28;20419;-70
2023/10/06 06:47:26;;;;;;;;;;;;;;;11.18;100.00;102354.75;5044411;28;19927;-70
2023/10/06 06:49:55;;;;;;;;;;;;;;;11.22;100.00;102365.25;5047759;28;19971;-76
2023/10/06 06:52:21;;;;;;;;;;;;;;;11.30;100.00;102355.88;5051141;28;19917;-74
2023/10/06 06:54:47;;;;;;;;;;;;;;;11.31;100.00;102353.09;5042815;28;20201;-72
2023/10/06 06:57:15;;;;;;;;;;;;;;;11.34;100.00;102358.31;5039635;28;20523;-70
2023/10/06 06:59:42;;;;;;;;;;;;;;;11.42;100.00;102355.19;5042379;28;20560;-74
2023/10/06 07:02:07;;;;;;;;;;;;;;;11.44;100.00;102352.41;5043879;28;20126;-72
2023/10/06 07:04:35;;;;;;;;;;;;;;;11.46;100.00;102347.81;5042727;28;19929;-79
2023/10/06 07:07:01;;;;;;;;;;;;;;;11.47;100.00;102349.56;5050633;28;20026;-74
2023/10/06 07:09:27;;;;;;;;;;;;;;;11.45;100.00;102355.00;5050515;28;19925;-74
2023/10/06 07:11:54;;;;;;;;;;;;;;;11.47;100.00;102345.03;5051291;28;20154;-73
2023/10/06 07:14:20;;;;;;;;;;;;;;;11.45;100.00;102357.69;5045278;28;19925;-73
2023/10/06 07:16:46;;;;;;;;;;;;;;;11.46;100.00;102351.34;5049982;28;20233;-72
2023/10/06 07:19:14;;;;;;;;;;;;;;;11.50;100.00;102344.00;5050961;28;19950;-71
2023/10/06 07:21:39;;;;;;;;;;;;;;;11.46;100.00;102356.75;5052337;28;19958;-70
2023/10/06 07:24:05;;;;;;;;;;;;;;;11.51;100.00;102360.03;5046616;28;19924;-73
2023/10/06 07:26:31;;;;;;;;;;;;;;;11.55;100.00;102355.34;5050311;28;20260;-72
2023/10/06 07:28:58;;;;;;;;;;;;;;;11.57;100.00;102360.66;5047642;28;19921;-73
2023/10/06 07:31:26;;;;;;;;;;;;;;;11.66;100.00;102352.03;5053711;28;20302;-70
2023/10/06 07:33:52;;;;;;;;;;;;;;;11.70;100.00;102348.19;5053263;28;19920;-72
2023/10/06 07:36:17;;;;;;;;;;;;;;;11.70;100.00;102340.13;5054987;28;19921;-74
2023/10/06 07:38:43;;;;;;;;;;;;;;;11.91;100.00;102361.38;5051812;28;20472;-72
2023/10/06 07:41:09;;;;;;;;;;;;;;;11.91;100.00;102361.38;5052061;28;19940;-74
2023/10/06 07:43:35;;;;;;;;;;;;;;;12.05;100.00;102366.81;5051061;28;19966;-72
2023/10/06 07:46:07;;;;;;;;;;;;;;;12.21;100.00;102376.66;5055022;28;19970;-72
2023/10/06 07:48:36;;;;;;;;;;;;;;;12.34;100.00;102371.38;5053442;28;19921;-73
2023/10/06 07:51:06;;;;;;;;;;;;;;;12.50;100.00;102374.00;5052432;28;20362;-71
2023/10/06 07:53:31;;;;;;;;;;;;;;;12.68;100.00;102380.09;5050052;28;19926;-71
2023/10/06 07:56:08;;;;;;;;;;;;;;;12.88;100.00;102376.16;5058545;28;19920;-70
2023/10/06 07:58:38;;;;;;;;;;;;;;;13.04;100.00;102371.50;5048738;28;20019;-78
2023/10/06 08:01:08;;;;;;;;;;;;;;;13.14;100.00;102366.38;5052321;28;20424;-73
2023/10/06 08:03:34;;;;;;;;;;;;;;;13.24;100.00;102381.97;5051951;28;20178;-76
2023/10/06 08:06:00;;;;;;;;;;;;;;;13.38;100.00;102371.16;5046612;28;19927;-73
2023/10/06 08:08:25;;;;;;;;;;;;;;;13.47;100.00;102392.16;5054562;28;19962;-72
2023/10/06 08:10:52;;;;;;;;;;;;;;;13.50;100.00;102378.47;5053136;28;19921;-72
2023/10/06 08:13:18;;;;;;;;;;;;;;;13.66;100.00;102377.44;5049897;28;20576;-70
2023/10/06 08:15:44;;;;;;;;;;;;;;;13.85;100.00;102382.50;5050988;28;19916;-70
2023/10/06 08:18:09;;;;;;;;;;;;;;;13.98;100.00;102378.97;5051604;28;19921;-70
2023/10/06 08:20:35;;;;;;;;;;;;;;;13.95;100.00;102369.22;5047644;28;19924;-72
2023/10/06 08:23:00;;;;;;;;;;;;;;;13.97;100.00;102372.69;5049274;28;19979;-74
2023/10/06 08:25:26;;;;;;;;;;;;;;;14.10;100.00;102361.91;5051028;28;19920;-71
2023/10/06 08:27:51;;;;;;;;;;;;;;;14.17;100.00;102368.63;5049411;28;20035;-73
2023/10/06 08:30:17;;;;;;;;;;;;;;;14.34;100.00;102362.06;5046643;28;19916;-71
2023/10/06 08:32:43;;;;;;;;;;;;;;;14.52;100.00;102372.53;5053773;28;19927;-74
2023/10/06 08:35:13;;;;;;;;;;;;;;;14.66;100.00;102371.56;5053024;28;19924;-71
2023/10/06 08:37:38;;;;;;;;;;;;;;;14.69;100.00;102368.69;5051215;28;20154;-72
2023/10/06 08:40:07;;;;;;;;;;;;;;;14.81;100.00;102373.22;5053831;28;19924;-72
2023/10/06 08:42:32;;;;;;;;;;;;;;;14.86;100.00;102370.19;5050440;28;19963;-74
2023/10/06 08:44:58;;;;;;;;;;;;;;;15.12;100.00;102364.72;5052111;28;20003;-73
2023/10/06 08:47:23;;;;;;;;;;;;;;;15.48;100.00;102365.69;5052266;28;19918;-71
2023/10/06 08:49:48;;;;;;;;;;;;;;;15.44;100.00;102367.75;5051238;28;19934;-73
2023/10/06 08:52:13;;;;;;;;;;;;;;;15.49;100.00;102366.56;5050463;28;19943;-71
2023/10/06 08:54:39;;;;;;;;;;;;;;;15.83;100.00;102358.59;5046848;28;19934;-74
2023/10/06 08:57:04;;;;;;;;;;;;;;;15.75;100.00;102362.75;5048126;28;19928;-71
2023/10/06 08:59:31;;;;;;;;;;;;;;;15.68;100.00;102366.88;5034010;28;19925;-71
2023/10/06 09:01:58;;;;;;;;;;;;;;;15.64;100.00;102372.66;5050785;28;19947;-72
2023/10/06 09:04:23;;;;;;;;;;;;;;;15.55;100.00;102379.63;5050605;28;19977;-71
2023/10/06 09:07:20;;;;;;;;;;;;;;;15.53;100.00;102381.59;5032122;28;19928;-72
2023/10/06 09:09:47;;;;;;;;;;;;;;;15.59;100.00;102373.00;5046093;28;19935;-74
2023/10/06 09:12:21;;;;;;;;;;;;;;;15.73;100.00;102366.56;5047868;28;19920;-73
2023/10/06 09:14:56;;;;;;;;;;;;;;;15.75;100.00;102365.44;5048705;28;19963;-74
2023/10/06 09:17:31;;;;;;;;;;;;;;;15.97;100.00;102366.53;5050328;28;20404;-76
2023/10/06 09:19:56;;;;;;;;;;;;;;;16.28;100.00;102364.19;5035179;28;20285;-72
2023/10/06 09:22:28;;;;;;;;;;;;;;;16.48;100.00;102369.88;5052177;28;19924;-74
2023/10/06 09:25:02;;;;;;;;;;;;;;;16.52;100.00;102352.38;5053008;28;19954;-71
2023/10/06 09:27:28;;;;;;;;;;;;;;;16.65;100.00;102357.69;5049916;28;19920;-75
2023/10/06 09:30:11;;;;;;;;;;;;;;;16.61;100.00;102356.19;5046791;28;19999;-72
2023/10/06 09:32:36;;;;;;;;;;;;;;;16.87;100.00;102343.28;5045889;28;20340;-71
2023/10/06 09:35:20;;;;;;;;;;;;;;;17.14;100.00;102333.03;5033193;28;19921;-70
2023/10/06 09:37:46;;;;;;;;;;;;;;;17.31;100.00;102337.94;5048459;28;19916;-72
2023/10/06 09:40:20;;;;;;;;;;;;;;;16.90;100.00;102328.59;5047215;28;19924;-73
2023/10/06 09:42:46;;;;;;;;;;;;;;;16.81;100.00;102327.50;5045865;28;19920;-75
2023/10/06 09:45:15;;;;;;;;;;;;;;;17.07;100.00;102335.38;5045734;28;19970;-69
2023/10/06 09:47:42;;;;;;;;;;;;;;;17.45;100.00;102323.22;5032367;28;20268;-70
2023/10/06 09:50:08;;;;;;;;;;;;;;;17.37;100.00;102329.25;5047337;28;19917;-72
2023/10/06 09:52:34;;;;;;;;;;;;;;;17.34;100.00;102334.09;5048080;28;19920;-73
2023/10/06 09:54:59;;;;;;;;;;;;;;;17.20;100.00;102332.53;5044593;28;19958;-72
2023/10/06 09:57:24;;;;;;;;;;;;;;;17.00;100.00;102336.88;5048770;28;19920;-73
2023/10/06 09:59:49;;;;;;;;;;;;;;;17.34;100.00;102323.22;5046013;28;19924;-73
2023/10/06 10:02:16;;;;;;;;;;;;;;;17.74;100.00;102328.03;5028489;28;19928;-71
2023/10/06 10:04:41;;;;;;;;;;;;;;;17.96;100.00;102318.03;5046654;28;19928;-71
2023/10/06 10:07:07;;;;;;;;;;;;;;;18.16;100.00;102318.19;5031463;28;19921;-71
2023/10/06 10:09:34;;;;;;;;;;;;;;;18.08;100.00;102314.28;5048050;28;20017;-74
2023/10/06 10:12:08;;;;;;;;;;;;;;;18.24;100.00;102310.25;5033157;28;19927;-72
2023/10/06 10:14:36;;;;;;;;;;;;;;;18.19;100.00;102304.34;5046670;28;21375;-71
2023/10/06 10:17:06;;;;;;;;;;;;;;;18.29;100.00;102305.22;5049019;28;20482;-73
2023/10/06 10:19:32;;;;;;;;;;;;;;;18.31;100.00;102300.53;5047902;28;20320;-73
2023/10/06 10:21:58;;;;;;;;;;;;;;;18.40;100.00;102307.03;5031290;28;19921;-71
2023/10/06 10:24:23;;;;;;;;;;;;;;;18.40;100.00;102307.03;5050958;28;20081;-72
2023/10/06 10:26:50;;;;;;;;;;;;;;;18.86;100.00;102305.63;5052337;28;19958;-71
2023/10/06 10:29:18;;;;;;;;;;;;;;;18.67;100.00;102311.88;5029755;28;19920;-75
2023/10/06 10:31:44;;;;;;;;;;;;;;;18.87;100.00;102311.91;5043761;28;19913;-73
2023/10/06 10:34:20;;;;;;;;;;;;;;;19.07;100.00;102318.31;5044954;28;20027;-73
2023/10/06 10:37:06;;;;;;;;;;;;;;;19.08;100.00;102306.44;5032130;28;20011;-72
2023/10/06 10:39:47;;;;;;;;;;;;;;;19.07;100.00;102302.00;5042334;28;19959;-72
2023/10/06 10:42:14;;;;;;;;;;;;;;;19.03;100.00;102297.81;5048668;28;19928;-72
2023/10/06 10:44:39;;;;;;;;;;;;;;;18.87;100.00;102299.19;5041647;28;19963;-73
2023/10/06 10:47:06;;;;;;;;;;;;;;;19.79;100.00;102299.88;5046389;28;20480;-71
2023/10/06 10:49:33;;;;;;;;;;;;;;;20.37;100.00;102298.03;5046122;28;20232;-71
2023/10/06 10:52:02;;;;;;;;;;;;;;;20.53;100.00;102297.41;5042576;28;20385;-73
2023/10/06 10:54:28;;;;;;;;;;;;;;;20.79;100.00;102279.53;5043626;28;19995;-72
2023/10/06 10:56:59;;;;;;;;;;;;;;;20.93;100.00;102286.31;5042154;28;19921;-72
2023/10/06 10:59:31;;;;;;;;;;;;;;;21.15;100.00;102287.75;5041521;28;19978;-76
2023/10/06 11:01:57;;;;;;;;;;;;;;;21.80;100.00;102289.41;5048700;28;19932;-71
2023/10/06 11:04:31;;;;;;;;;;;;;;;20.87;100.00;102290.53;5052062;28;20025;-75
2023/10/06 11:07:09;;;;;;;;;;;;;;;19.75;100.00;102292.13;5045826;28;20528;-75
2023/10/06 11:09:41;;;;;;;;;;;;;;;20.20;100.00;102296.09;5048716;28;19921;-72
2023/10/06 11:12:15;;;;;;;;;;;;;;;19.96;100.00;102293.84;5046643;28;19924;-71
2023/10/06 11:14:41;;;;;;;;;;;;;;;19.91;100.00;102302.47;5042835;28;19920;-72
2023/10/06 11:17:06;;;;;;;;;;;;;;;20.17;100.00;102296.41;5045742;28;20358;-71
2023/10/06 11:19:32;;;;;;;;;;;;;;;20.37;100.00;102291.75;5047254;28;20573;-72
2023/10/06 11:22:11;;;;;;;;;;;;;;;20.67;100.00;102300.63;5032572;28;19967;-72
2023/10/06 11:24:36;;;;;;;;;;;;;;;20.73;99.30;102301.94;5023956;28;20051;-73
2023/10/06 11:27:12;;;;;;;;;;;;;;;20.50;100.00;102294.97;5032345;28;19920;-72
2023/10/06 11:29:37;;;;;;;;;;;;;;;20.38;100.00;102290.75;5044783;28;19920;-71
2023/10/06 11:32:02;;;;;;;;;;;;;;;20.30;96.69;102296.06;5042306;28;19924;-73
2023/10/06 11:34:27;;;;;;;;;;;;;;;20.97;100.00;102285.88;5046055;28;19959;-70
2023/10/06 11:36:54;;;;;;;;;;;;;;;21.47;100.00;102280.03;5049405;28;20007;-70
2023/10/06 11:39:23;;;;;;;;;;;;;;;21.55;92.83;102277.38;5046190;28;20039;-70
2023/10/06 11:41:50;;;;;;;;;;;;;;;21.66;100.00;102282.66;5058234;28;19936;-70
2023/10/06 11:44:15;;;;;;;;;;;;;;;21.03;97.52;102275.34;5029447;28;19995;-75
2023/10/06 11:46:50;;;;;;;;;;;;;;;19.70;100.00;102278.09;5030170;28;20047;-72
2023/10/06 11:49:19;;;;;;;;;;;;;;;20.55;100.00;102277.31;5047664;28;19920;-71
2023/10/06 11:51:44;;;;;;;;;;;;;;;19.31;100.00;102273.50;5024799;28;20039;-72
2023/10/06 11:54:09;;;;;;;;;;;;;;;19.69;100.00;102260.88;5046764;28;20273;-71
2023/10/06 11:56:34;;;;;;;;;;;;;;;19.61;100.00;102268.91;5050674;28;19924;-71
2023/10/06 11:59:00;;;;;;;;;;;;;;;19.25;100.00;102274.94;5049269;28;19935;-72
2023/10/06 12:01:32;;;;;;;;;;;;;;;19.85;100.00;102268.47;5049667;28;20815;-70
2023/10/06 12:04:00;;;;;;;;;;;;;;;20.19;100.00;102262.50;5050779;28;19920;-72
2023/10/06 12:06:46;;;;;;;;;;;;;;;20.43;100.00;102255.66;5049430;28;19924;-72
2023/10/06 12:09:21;;;;;;;;;;;;;;;21.00;100.00;102257.41;5051361;28;19934;-71
2023/10/06 12:11:47;;;;;;;;;;;;;;;22.16;90.40;102256.50;5048180;28;19924;-70
2023/10/06 12:14:12;;;;;;;;;;;;;;;22.85;83.78;102260.25;5049570;28;20693;-72
2023/10/06 12:16:37;;;;;;;;;;;;;;;22.32;82.80;102260.34;5034055;28;20370;-73
2023/10/06 12:19:03;;;;;;;;;;;;;;;21.00;93.54;102248.34;5051238;28;19950;-72
2023/10/06 12:21:29;;;;;;;;;;;;;;;21.26;93.50;102243.84;5048336;28;20425;-72
2023/10/06 12:23:54;;;;;;;;;;;;;;;22.08;90.38;102250.13;5042961;28;19931;-71
2023/10/06 12:26:19;;;;;;;;;;;;;;;22.84;90.46;102250.31;5048576;28;20268;-71
2023/10/06 12:28:46;;;;;;;;;;;;;;;23.03;77.53;102243.69;5050688;28;19921;-72
2023/10/06 12:31:11;;;;;;;;;;;;;;;23.35;74.10;102239.28;5049327;28;20244;-73
2023/10/06 12:33:38;;;;;;;;;;;;;;;23.20;77.35;102248.16;5047743;28;19935;-72
2023/10/06 12:36:07;;;;;;;;;;;;;;;22.49;83.79;102246.78;5034225;28;19962;-71